Elko New Market, Minnesota
Current Conditions -  °F | °C
As of 1:24 AM on Monday 22 Dec 2014 (Local Time) from KLVN Reporting Station
Haze Haze  
Wind Chill: 29°   Ceiling: 600
Heat Index: 36°   Visibility: 4mi
Dew Point: 36°   Wind: 8mph
Humidity: 100%   Direction: 150°SSE
Pressure: 29.7"   Gusts: NA
Location:  44.56°N, 93.33°W
Report Text: KLVN 220724Z AUTO 15007KT 4SM BR OVC006 02/02 A2970 RMK AO2
Loading
Personal Weather Stations






























Interactive Weather Map New forecast layout! Learn more

10-Day Weather Forecast

Advertisements
Track Severe Weather on mobile